createdAt,value
2019-02-02T00:02:02.014Z,93.27
2019-02-02T00:04:32.569Z,93.33
2019-02-02T00:07:03.083Z,93.42
2019-02-02T00:09:33.725Z,93.53
2019-02-02T00:12:04.239Z,93.21
2019-02-02T00:14:34.836Z,93.12
2019-02-02T00:17:05.570Z,93.19
2019-02-02T00:19:36.159Z,93.61
2019-02-02T00:22:08.599Z,93.62
2019-02-02T00:24:39.228Z,93.42
2019-02-02T00:27:09.761Z,93.65
2019-02-02T00:29:40.251Z,93.42
2019-02-02T00:32:10.807Z,93.33
2019-02-02T00:34:41.346Z,93.51
2019-02-02T00:37:11.933Z,93.62
2019-02-02T00:39:42.423Z,93.80
2019-02-02T00:42:12.950Z,93.75
2019-02-02T00:44:43.479Z,93.67
2019-02-02T00:47:14.051Z,93.74
2019-02-02T00:49:44.678Z,93.78
2019-02-02T00:52:15.189Z,93.74
2019-02-02T00:54:45.746Z,93.55
2019-02-02T00:57:16.304Z,93.65
2019-02-02T00:59:46.853Z,93.73
2019-02-02T01:02:17.485Z,93.72
2019-02-02T01:04:48.082Z,93.73
2019-02-02T01:07:19.691Z,93.78
2019-02-02T01:09:50.237Z,93.68
2019-02-02T01:12:20.754Z,93.67
2019-02-02T01:14:51.321Z,93.77
2019-02-02T01:17:21.886Z,93.82
2019-02-02T01:19:52.406Z,93.49
2019-02-02T01:22:22.948Z,93.52
2019-02-02T01:24:53.558Z,93.50
2019-02-02T01:27:24.090Z,93.57
2019-02-02T01:29:54.590Z,93.64
2019-02-02T01:32:25.266Z,93.63
2019-02-02T01:34:55.741Z,93.65
2019-02-02T01:37:26.300Z,93.55
2019-02-02T01:39:56.853Z,93.44
2019-02-02T01:42:27.372Z,93.38
2019-02-02T01:44:57.953Z,93.31
2019-02-02T01:47:28.535Z,93.47
2019-02-02T01:49:59.146Z,93.64
2019-02-02T01:52:29.644Z,93.65
2019-02-02T01:55:00.313Z,93.73
2019-02-02T01:57:30.855Z,93.54
2019-02-02T02:00:01.402Z,93.57
2019-02-02T02:02:31.977Z,93.66
2019-02-02T02:05:02.500Z,93.79
2019-02-02T02:07:33.029Z,93.79
2019-02-02T02:10:03.884Z,93.71
2019-02-02T02:12:34.483Z,93.72
2019-02-02T02:15:05.760Z,93.80
2019-02-02T02:17:36.322Z,93.69
2019-02-02T02:20:08.481Z,93.74
2019-02-02T02:22:41.099Z,93.93
2019-02-02T02:25:14.436Z,93.98
2019-02-02T02:27:44.992Z,94.06
2019-02-02T02:30:23.597Z,94.05
2019-02-02T02:32:54.557Z,94.09
2019-02-02T02:35:25.081Z,93.58
2019-02-02T02:37:57.111Z,93.21
2019-02-02T02:40:28.540Z,93.02
2019-02-02T02:42:59.161Z,93.25
2019-02-02T02:45:30.516Z,93.39
2019-02-02T02:48:01.046Z,93.57
2019-02-02T02:50:33.758Z,93.38
2019-02-02T02:53:04.274Z,93.58
2019-02-02T02:55:34.959Z,93.66
2019-02-02T02:58:06.103Z,93.55
2019-02-02T03:00:36.602Z,93.50
2019-02-02T03:03:07.416Z,93.63
2019-02-02T03:05:37.951Z,93.34
2019-02-02T03:08:08.560Z,93.38
2019-02-02T03:10:39.109Z,93.51
2019-02-02T03:13:09.774Z,93.39
2019-02-02T03:15:40.343Z,92.89
2019-02-02T03:18:10.893Z,93.05
2019-02-02T03:20:41.454Z,93.19
2019-02-02T03:23:11.978Z,93.23
2019-02-02T03:25:42.505Z,93.35
2019-02-02T03:28:13.101Z,93.43
2019-02-02T03:30:43.659Z,93.47
2019-02-02T03:33:14.143Z,93.64
2019-02-02T03:35:44.728Z,93.68
2019-02-02T03:38:15.244Z,93.65
2019-02-02T03:40:45.724Z,93.63
2019-02-02T03:43:16.277Z,93.70
2019-02-02T03:45:46.836Z,93.41
2019-02-02T03:48:17.327Z,92.98
2019-02-02T03:50:47.852Z,92.45
2019-02-02T03:53:18.325Z,92.76
2019-02-02T03:55:49.029Z,92.22
2019-02-02T03:58:19.689Z,92.43
2019-02-02T04:00:50.207Z,92.79
2019-02-02T04:03:20.791Z,92.43
2019-02-02T04:05:51.526Z,92.45
2019-02-02T04:08:22.072Z,92.47
2019-02-02T04:10:52.565Z,92.55
2019-02-02T04:13:23.127Z,92.56
2019-02-02T04:15:53.595Z,92.54
2019-02-02T04:18:24.103Z,92.36
2019-02-02T04:20:54.625Z,92.52
2019-02-02T04:23:25.111Z,92.24
2019-02-02T04:25:58.653Z,92.22
2019-02-02T04:28:29.126Z,92.34
2019-02-02T04:30:59.626Z,92.29
2019-02-02T04:33:30.133Z,92.45
2019-02-02T04:36:00.597Z,92.37
2019-02-02T04:38:31.226Z,92.36
2019-02-02T04:41:01.796Z,92.56
2019-02-02T04:43:32.301Z,92.04
2019-02-02T04:46:02.763Z,92.13
2019-02-02T04:48:33.340Z,92.38
2019-02-02T04:51:03.829Z,92.26
2019-02-02T04:53:34.320Z,92.58
2019-02-02T04:56:04.821Z,92.67
2019-02-02T04:58:35.311Z,92.46
2019-02-02T05:01:05.878Z,92.23
2019-02-02T05:03:36.414Z,92.10
2019-02-02T05:06:06.921Z,91.86
2019-02-02T05:08:37.415Z,91.98
2019-02-02T05:11:07.942Z,92.31
2019-02-02T05:13:38.457Z,92.54
2019-02-02T05:16:08.952Z,92.30
2019-02-02T05:18:39.525Z,92.48
2019-02-02T05:21:10.097Z,92.63
2019-02-02T05:23:40.622Z,92.57
2019-02-02T05:26:11.185Z,92.73
2019-02-02T05:28:41.667Z,92.66
2019-02-02T05:31:12.142Z,92.90
2019-02-02T05:33:42.687Z,93.17
2019-02-02T05:36:13.268Z,93.32
2019-02-02T05:38:43.781Z,93.33
2019-02-02T05:41:14.289Z,93.52
2019-02-02T05:43:44.790Z,93.67
2019-02-02T05:46:15.313Z,93.61
2019-02-02T05:48:45.793Z,93.48
2019-02-02T05:51:16.282Z,93.58
2019-02-02T05:53:46.782Z,93.69
2019-02-02T05:56:17.234Z,93.55
2019-02-02T05:58:47.713Z,93.35
2019-02-02T06:01:20.447Z,93.52
2019-02-02T06:03:51.029Z,93.15
2019-02-02T06:06:21.533Z,93.20
2019-02-02T06:08:52.118Z,93.22
2019-02-02T06:11:22.606Z,92.96
2019-02-02T06:13:53.141Z,92.48
2019-02-02T06:16:23.652Z,92.82
2019-02-02T06:18:54.199Z,93.08
2019-02-02T06:21:24.691Z,93.02
2019-02-02T06:23:55.175Z,93.00
2019-02-02T06:26:25.712Z,92.98
2019-02-02T06:28:56.387Z,93.16
2019-02-02T06:31:26.894Z,93.06
2019-02-02T06:33:57.508Z,93.09
2019-02-02T06:36:27.980Z,93.08
2019-02-02T06:38:58.476Z,93.20
2019-02-02T06:41:28.995Z,93.46
2019-02-02T06:43:59.506Z,93.24
2019-02-02T06:46:30.007Z,93.62
2019-02-02T06:49:01.599Z,93.44
2019-02-02T06:51:32.286Z,93.69
2019-02-02T06:54:02.866Z,93.78
2019-02-02T06:56:33.363Z,93.76
2019-02-02T06:59:03.883Z,93.83
2019-02-02T07:01:34.421Z,93.63
2019-02-02T07:04:07.920Z,93.65
2019-02-02T07:06:40.181Z,93.19
2019-02-02T07:09:11.048Z,93.43
2019-02-02T07:11:41.555Z,93.63
2019-02-02T07:14:12.455Z,93.86
2019-02-02T07:16:48.838Z,93.70
2019-02-02T07:19:19.465Z,93.43
2019-02-02T07:21:49.959Z,93.26
2019-02-02T07:24:20.432Z,92.83
2019-02-02T07:26:50.995Z,93.11
2019-02-02T07:29:21.514Z,93.14
2019-02-02T07:31:52.049Z,93.09
2019-02-02T07:34:22.744Z,93.38
2019-02-02T07:36:53.228Z,93.23
2019-02-02T07:39:24.293Z,93.26
2019-02-02T07:41:54.737Z,93.18
2019-02-02T07:44:25.279Z,93.23
2019-02-02T07:46:55.739Z,93.08
2019-02-02T07:49:26.322Z,93.13
2019-02-02T07:51:56.825Z,92.81
2019-02-02T07:54:28.581Z,93.06
2019-02-02T07:56:59.118Z,93.22
2019-02-02T07:59:29.593Z,93.22
2019-02-02T08:02:00.146Z,92.96
2019-02-02T08:04:30.737Z,93.01
2019-02-02T08:07:01.296Z,93.21
2019-02-02T08:09:31.752Z,92.85
2019-02-02T08:12:02.273Z,92.52
2019-02-02T08:14:32.779Z,92.72
2019-02-02T08:17:03.426Z,92.63
2019-02-02T08:19:34.150Z,92.14
2019-02-02T08:22:04.750Z,92.25
2019-02-02T08:24:35.206Z,92.38
2019-02-02T08:27:05.845Z,92.22
2019-02-02T08:29:36.354Z,92.29
2019-02-02T08:32:07.214Z,92.44
2019-02-02T08:34:37.747Z,92.52
2019-02-02T08:37:08.247Z,92.60
2019-02-02T08:39:38.765Z,92.50
2019-02-02T08:42:09.270Z,92.63
2019-02-02T08:44:39.747Z,92.14
2019-02-02T08:47:10.207Z,92.15
2019-02-02T08:49:40.742Z,92.21
2019-02-02T08:52:13.142Z,91.80
2019-02-02T08:54:43.681Z,91.85
2019-02-02T08:57:14.217Z,92.05
2019-02-02T08:59:44.678Z,91.71
2019-02-02T09:02:15.172Z,91.55
2019-02-02T09:04:45.695Z,91.50
2019-02-02T09:07:16.212Z,91.18
2019-02-02T09:09:46.681Z,90.76
2019-02-02T09:12:17.187Z,90.64
2019-02-02T09:14:47.707Z,90.89
2019-02-02T09:17:18.188Z,91.27
2019-02-02T09:19:48.674Z,91.52
2019-02-02T09:22:19.214Z,91.52
2019-02-02T09:24:51.821Z,91.63
2019-02-02T09:27:21.956Z,90.48
2019-02-02T09:29:52.557Z,90.21
2019-02-02T09:32:23.020Z,90.12
2019-02-02T09:34:53.509Z,90.04
2019-02-02T09:37:24.073Z,89.98
2019-02-02T09:39:54.595Z,90.26
2019-02-02T09:42:25.242Z,90.46
2019-02-02T09:47:24.852Z,90.26
2019-02-02T09:49:55.412Z,90.24
2019-02-02T09:52:25.903Z,89.97
2019-02-02T09:54:56.484Z,90.04
2019-02-02T09:57:27.762Z,89.69
2019-02-02T09:59:58.712Z,89.89
2019-02-02T10:02:29.267Z,89.26
2019-02-02T10:04:59.771Z,89.92
2019-02-02T10:07:30.298Z,89.02
2019-02-02T10:10:00.783Z,89.34
2019-02-02T10:12:31.358Z,89.50
2019-02-02T10:15:01.839Z,89.84
2019-02-02T10:17:32.359Z,89.77
2019-02-02T10:20:02.889Z,89.32
2019-02-02T10:22:33.428Z,89.26
2019-02-02T10:25:04.034Z,89.94
2019-02-02T10:27:34.666Z,89.05
2019-02-02T10:30:07.795Z,89.23
2019-02-02T10:32:38.300Z,89.17
2019-02-02T10:35:09.004Z,89.93
2019-02-02T10:37:39.565Z,89.62
2019-02-02T10:40:10.692Z,90.06
2019-02-02T10:42:41.451Z,89.63
2019-02-02T10:45:12.592Z,89.29
2019-02-02T10:47:43.161Z,88.57
2019-02-02T10:50:15.370Z,88.37
2019-02-02T10:52:46.040Z,89.28
2019-02-02T10:55:16.661Z,89.29
2019-02-02T10:57:47.353Z,89.04
2019-02-02T11:00:27.719Z,88.74
2019-02-02T11:02:58.471Z,89.01
2019-02-02T11:05:30.109Z,89.17
2019-02-02T11:08:00.730Z,89.22
2019-02-02T11:10:32.444Z,88.45
2019-02-02T11:13:03.146Z,88.29
2019-02-02T11:15:33.642Z,88.35
2019-02-02T11:18:05.082Z,87.93
2019-02-02T11:20:36.690Z,87.78
2019-02-02T11:23:07.545Z,87.72
2019-02-02T11:25:38.280Z,88.28
2019-02-02T11:28:09.145Z,87.94
2019-02-02T11:30:39.914Z,88.13
2019-02-02T11:33:10.942Z,87.66
2019-02-02T11:35:41.489Z,87.24
2019-02-02T11:38:12.020Z,87.18
2019-02-02T11:40:42.535Z,87.47
2019-02-02T11:43:13.053Z,87.78
2019-02-02T11:45:43.553Z,87.74
2019-02-02T11:48:15.162Z,87.90
2019-02-02T11:50:45.790Z,87.68
2019-02-02T11:53:16.281Z,87.80
2019-02-02T11:55:46.867Z,87.71
2019-02-02T11:58:17.320Z,87.91
2019-02-02T12:00:47.834Z,88.28
2019-02-02T12:03:18.375Z,87.90
2019-02-02T12:05:48.953Z,87.66
2019-02-02T12:08:19.476Z,87.48
2019-02-02T12:10:50.003Z,87.28
2019-02-02T12:13:20.659Z,87.88
2019-02-02T12:15:51.170Z,87.31
2019-02-02T12:18:21.694Z,87.11
2019-02-02T12:20:52.216Z,87.34
2019-02-02T12:23:22.807Z,87.58
2019-02-02T12:25:53.476Z,87.93
2019-02-02T12:28:23.955Z,87.74
2019-02-02T12:30:54.563Z,87.73
2019-02-02T12:33:25.932Z,87.89
2019-02-02T12:35:56.699Z,87.45
2019-02-02T12:38:27.235Z,87.64
2019-02-02T12:40:59.733Z,87.79
2019-02-02T12:43:30.048Z,87.93
2019-02-02T12:46:00.619Z,87.79
2019-02-02T12:48:32.368Z,87.38
2019-02-02T12:51:04.654Z,87.46
2019-02-02T12:53:35.186Z,87.44
2019-02-02T12:56:05.759Z,87.13
2019-02-02T12:58:36.239Z,87.36
2019-02-02T13:01:06.843Z,87.23
2019-02-02T13:03:37.416Z,86.62
2019-02-02T13:06:07.938Z,87.04
2019-02-02T13:08:38.469Z,87.34
2019-02-02T13:11:08.998Z,87.55
2019-02-02T13:13:42.414Z,87.65
2019-02-02T13:16:11.780Z,87.85
2019-02-02T13:18:42.264Z,87.10
2019-02-02T13:21:12.805Z,87.56
2019-02-02T13:23:43.450Z,87.86
2019-02-02T13:26:14.033Z,87.99
2019-02-02T13:28:44.618Z,88.17
2019-02-02T13:31:15.181Z,87.34
2019-02-02T13:33:45.757Z,87.36
2019-02-02T13:36:16.398Z,87.69
2019-02-02T13:38:46.868Z,87.06
2019-02-02T13:41:17.430Z,87.08
2019-02-02T13:43:47.926Z,87.37
2019-02-02T13:46:18.436Z,87.34
2019-02-02T13:48:51.007Z,87.68
2019-02-02T13:51:21.134Z,87.80
2019-02-02T13:53:51.698Z,87.53
2019-02-02T13:56:22.514Z,87.53
2019-02-02T13:58:53.087Z,88.20
2019-02-02T14:01:23.738Z,87.17
2019-02-02T14:03:54.216Z,87.42
2019-02-02T14:06:24.745Z,87.15
2019-02-02T14:08:55.256Z,87.10
2019-02-02T14:11:25.785Z,87.26
2019-02-02T14:13:56.338Z,87.62
2019-02-02T14:16:26.869Z,87.16
2019-02-02T14:18:57.353Z,87.44
2019-02-02T14:21:28.055Z,87.45
2019-02-02T14:23:58.572Z,87.57
2019-02-02T14:26:29.078Z,87.62
2019-02-02T14:28:59.597Z,87.36
2019-02-02T14:31:30.091Z,87.49
2019-02-02T14:34:00.649Z,87.51
2019-02-02T14:36:31.174Z,87.15
2019-02-02T14:39:01.684Z,86.96
2019-02-02T14:41:32.166Z,87.17
2019-02-02T14:44:02.650Z,87.71
2019-02-02T14:46:33.225Z,87.70
2019-02-02T14:49:03.710Z,87.60
2019-02-02T14:51:34.235Z,87.13
2019-02-02T14:54:05.462Z,87.03
2019-02-02T14:56:36.014Z,87.67
2019-02-02T14:59:06.627Z,87.80
2019-02-02T15:01:37.253Z,87.40
2019-02-02T15:04:07.758Z,87.65
2019-02-02T15:06:38.325Z,87.26
2019-02-02T15:09:09.692Z,86.84
2019-02-02T15:11:41.002Z,86.63
2019-02-02T15:14:11.654Z,86.94
2019-02-02T15:16:42.200Z,86.85
2019-02-02T15:19:12.731Z,87.18
2019-02-02T15:21:43.606Z,86.37
2019-02-02T15:24:14.126Z,85.98
2019-02-02T15:26:44.611Z,86.29
2019-02-02T15:29:15.168Z,85.42
2019-02-02T15:31:45.688Z,85.26
2019-02-02T15:34:16.203Z,85.04
2019-02-02T15:36:46.756Z,85.31
2019-02-02T15:39:17.263Z,85.63
2019-02-02T15:41:52.911Z,85.42
2019-02-02T15:44:20.243Z,85.28
2019-02-02T15:49:20.129Z,85.63
2019-02-02T15:51:51.316Z,86.66
2019-02-02T15:54:22.161Z,86.75
2019-02-02T15:56:54.768Z,87.37
2019-02-02T15:59:25.211Z,87.82
2019-02-02T16:01:55.851Z,87.96
2019-02-02T16:04:26.541Z,88.44
2019-02-02T16:06:57.243Z,88.22
2019-02-02T16:09:28.086Z,88.10
2019-02-02T16:11:59.660Z,88.36
2019-02-02T16:14:30.496Z,89.17
2019-02-02T16:17:39.949Z,90.07
2019-02-02T16:20:20.708Z,90.34
2019-02-02T16:22:58.234Z,90.22
2019-02-02T16:25:48.703Z,90.55
2019-02-02T16:28:38.654Z,91.03
2019-02-02T16:31:12.957Z,91.22
2019-02-02T16:33:43.997Z,91.50
2019-02-02T16:36:14.673Z,91.47
2019-02-02T16:38:45.608Z,91.43
2019-02-02T16:41:16.693Z,90.92
2019-02-02T16:43:48.575Z,91.16
2019-02-02T16:46:20.877Z,91.29
2019-02-02T16:48:51.545Z,91.32
2019-02-02T16:51:22.234Z,91.18
2019-02-02T16:53:52.932Z,91.02
2019-02-02T16:56:23.568Z,91.06
2019-02-02T16:58:54.593Z,91.07
2019-02-02T17:01:25.264Z,91.27
2019-02-02T17:03:56.083Z,91.49
2019-02-02T17:06:26.887Z,91.36
2019-02-02T17:08:57.719Z,91.64
2019-02-02T17:11:28.590Z,91.56
2019-02-02T17:13:59.250Z,91.57
2019-02-02T17:16:29.896Z,91.73
2019-02-02T17:19:00.479Z,91.41
2019-02-02T17:21:31.084Z,91.42
2019-02-02T17:24:01.706Z,91.07
2019-02-02T17:26:32.303Z,90.71
2019-02-02T17:29:02.918Z,90.71
2019-02-02T17:31:33.687Z,90.55
2019-02-02T17:34:04.409Z,91.25
2019-02-02T17:36:35.126Z,90.85
2019-02-02T17:39:07.734Z,90.98
2019-02-02T17:41:38.501Z,91.02
2019-02-02T17:44:09.740Z,91.09
2019-02-02T17:46:47.170Z,90.96
2019-02-02T17:49:15.211Z,91.09
2019-02-02T17:54:21.066Z,90.83
2019-02-02T17:57:00.428Z,90.69
2019-02-02T17:59:31.097Z,90.83
2019-02-02T18:02:02.745Z,90.74
2019-02-02T18:04:40.998Z,90.75
2019-02-02T18:07:06.243Z,90.78
2019-02-02T18:09:37.001Z,90.91
2019-02-02T18:12:07.687Z,91.06
2019-02-02T18:14:40.977Z,90.70
2019-02-02T18:17:14.371Z,91.10
2019-02-02T18:33:32.659Z,91.01
2019-02-02T18:36:03.387Z,91.13
2019-02-02T18:38:34.359Z,91.07
2019-02-02T18:41:05.468Z,90.88
2019-02-02T18:43:39.980Z,91.02
2019-02-02T18:46:20.182Z,90.98
2019-02-02T18:48:51.245Z,91.04
2019-02-02T18:51:22.230Z,91.36
2019-02-02T18:53:53.030Z,91.44
2019-02-02T18:56:23.664Z,91.18
2019-02-02T18:58:58.203Z,91.25
2019-02-02T19:01:29.056Z,91.30
2019-02-02T19:04:04.793Z,91.74
2019-02-02T19:06:40.051Z,91.85
2019-02-02T19:09:27.612Z,91.88
2019-02-02T19:15:02.653Z,91.46
2019-02-02T19:17:33.526Z,91.66
2019-02-02T19:20:08.759Z,91.52
2019-02-02T19:55:29.388Z,91.28
2019-02-02T19:58:00.344Z,91.40
2019-02-02T20:00:33.167Z,91.43
2019-02-02T20:03:05.021Z,91.60
2019-02-02T20:05:36.207Z,92.16
2019-02-02T20:08:07.299Z,92.32
2019-02-02T20:10:38.635Z,92.34
2019-02-02T20:13:10.365Z,92.08
2019-02-02T20:15:41.182Z,92.00
2019-02-02T20:18:12.702Z,91.98
2019-02-02T20:20:44.055Z,91.77
2019-02-02T20:23:14.994Z,91.95
2019-02-02T20:25:46.611Z,91.87
2019-02-02T20:28:17.643Z,91.51
2019-02-02T20:31:56.896Z,91.44
2019-02-02T21:14:51.187Z,90.69
2019-02-02T21:17:21.856Z,90.79
2019-02-02T21:19:52.576Z,90.80
2019-02-02T21:22:23.369Z,90.68
2019-02-02T21:24:54.107Z,90.47
2019-02-02T21:27:25.001Z,90.66
2019-02-02T21:29:56.040Z,90.43
2019-02-02T21:32:26.614Z,90.55
2019-02-02T21:35:02.006Z,90.48
2019-02-02T21:37:33.180Z,90.41
2019-02-02T21:40:30.356Z,90.16
2019-02-02T21:43:01.310Z,90.52
2019-02-02T21:45:32.316Z,90.60
2019-02-02T21:48:02.990Z,89.94
2019-02-02T21:50:33.534Z,90.30
2019-02-02T21:53:04.138Z,90.36
2019-02-02T21:55:34.827Z,90.25
2019-02-02T21:58:05.416Z,90.11
2019-02-02T22:00:41.799Z,90.22
2019-02-02T22:03:12.494Z,90.15
2019-02-02T22:05:42.994Z,90.31
2019-02-02T22:08:13.742Z,90.51
2019-02-02T22:10:44.506Z,90.56
2019-02-02T22:13:15.591Z,90.61
2019-02-02T22:15:46.229Z,90.47
2019-02-02T22:18:16.713Z,90.49
2019-02-02T22:20:47.171Z,90.22
2019-02-02T22:23:17.756Z,90.35
2019-02-02T22:25:49.928Z,90.25
2019-02-02T22:28:20.453Z,90.33
2019-02-02T22:30:51.060Z,90.46
2019-02-02T22:33:21.701Z,90.13
2019-02-02T22:35:52.239Z,90.33
2019-02-02T22:38:22.865Z,90.43
2019-02-02T22:40:53.362Z,90.29
2019-02-02T22:43:23.919Z,90.04
2019-02-02T22:45:54.544Z,90.13
2019-02-02T22:48:25.044Z,89.75
2019-02-02T22:50:55.635Z,90.02
2019-02-02T22:53:26.182Z,90.02
2019-02-02T22:55:56.738Z,90.05
2019-02-02T22:58:27.599Z,90.09
2019-02-02T23:01:33.127Z,90.23
2019-02-02T23:04:59.000Z,90.21
2019-02-02T23:08:39.836Z,90.02
2019-02-02T23:11:33.921Z,90.21
2019-02-02T23:14:40.864Z,90.26
2019-02-02T23:17:11.375Z,90.06
2019-02-02T23:19:41.922Z,90.00
2019-02-02T23:22:12.476Z,90.09
2019-02-02T23:24:42.983Z,90.05
2019-02-02T23:27:13.470Z,90.01
2019-02-02T23:29:44.074Z,89.82
2019-02-02T23:32:14.605Z,89.98
2019-02-02T23:34:45.103Z,90.08
2019-02-02T23:37:15.697Z,90.17
2019-02-02T23:39:46.172Z,90.20
2019-02-02T23:42:16.724Z,90.11
2019-02-02T23:44:47.281Z,90.13
2019-02-02T23:47:17.810Z,89.92
2019-02-02T23:49:48.288Z,89.92
2019-02-02T23:52:18.805Z,90.10
2019-02-02T23:54:49.330Z,90.20
2019-02-02T23:57:19.838Z,90.43
2019-02-02T23:59:50.572Z,90.36
